Time;durP1;ratioP1;P1;durP2;ratioP2;P2;SDS_P1;SDS_P2;PMS_P1;PMS_P2;Temp;Humidity;BMP_temperature;BMP_pressure;BME280_temperature;BME280_humidity;BME280_pressure;Samples;Min_cycle;Max_cycle;Signal;HPM_P1;HPM_P2
2021/10/02 00:41:06;;;;;;;24.75;12.43;;;;;;;5.43;99.09;93889.84;5039616;28;20059;-77
2021/10/02 00:41:20;;;;;;;23.85;12.75;;;;;;;5.42;98.67;93889.03;5040047;28;20121;-77
2021/10/02 00:46:32;;;;;;;22.73;12.18;;;;;;;5.25;98.78;93880.63;5040957;28;19928;-77
2021/10/02 00:48:59;;;;;;;21.40;11.77;;;;;;;5.25;99.29;93882.34;5039664;28;20044;-77
2021/10/02 00:51:26;;;;;;;24.88;13.32;;;;;;;5.35;98.77;93890.63;5041005;28;20091;-77
2021/10/02 00:53:53;;;;;;;24.92;13.10;;;;;;;5.36;98.08;93889.69;5041239;28;20041;-77
2021/10/02 00:56:21;;;;;;;24.48;13.40;;;;;;;5.15;97.48;93855.31;5039652;28;20045;-77
2021/10/02 00:58:50;;;;;;;26.52;13.82;;;;;;;5.22;97.72;93874.09;5040654;28;20045;-77
2021/10/02 01:01:24;;;;;;;26.83;13.73;;;;;;;5.29;98.05;93884.44;5041313;28;20124;-77
2021/10/02 01:04:03;;;;;;;24.05;12.50;;;;;;;5.28;97.35;93877.72;5040622;28;20099;-77
2021/10/02 01:06:47;;;;;;;25.33;13.55;;;;;;;5.21;98.44;93874.25;5040281;28;20563;-77
2021/10/02 01:09:36;;;;;;;24.63;12.77;;;;;;;5.10;98.22;93862.63;5038603;28;20049;-78
2021/10/02 01:12:15;;;;;;;24.83;13.40;;;;;;;5.06;98.64;93877.41;5030763;28;20049;-78
2021/10/02 01:14:47;;;;;;;27.85;13.38;;;;;;;4.89;99.64;93879.16;5030808;28;20464;-78
2021/10/02 01:17:20;;;;;;;26.33;14.75;;;;;;;4.86;100.00;93865.97;5030588;28;20103;-77
2021/10/02 01:19:58;;;;;;;25.38;14.75;;;;;;;4.88;99.31;93874.22;5030719;28;20049;-77
2021/10/02 01:22:55;;;;;;;24.38;14.10;;;;;;;4.72;100.00;93854.66;5030385;28;20513;-77
2021/10/02 01:25:35;;;;;;;24.80;14.13;;;;;;;4.76;99.89;93843.19;5030598;28;20049;-77
2021/10/02 01:28:08;;;;;;;26.45;14.40;;;;;;;4.90;99.19;93846.84;5030464;28;20045;-77
2021/10/02 01:30:52;;;;;;;25.27;14.02;;;;;;;4.97;98.86;93858.00;5030453;28;20049;-77
2021/10/02 01:33:29;;;;;;;25.20;14.10;;;;;;;5.00;98.34;93862.00;5030331;28;20057;-77
2021/10/02 01:36:06;;;;;;;23.83;13.32;;;;;;;4.94;98.22;93854.03;5029331;28;20144;-77
2021/10/02 01:47:12;;;;;;;28.10;16.00;;;;;;;4.51;100.00;93851.59;5030024;28;20059;-77
2021/10/02 01:49:41;;;;;;;30.85;15.85;;;;;;;4.52;100.00;93849.84;5029869;28;20049;-77
2021/10/02 01:52:09;;;;;;;27.88;14.52;;;;;;;4.49;100.00;93856.03;5029988;28;20103;-77
2021/10/02 01:54:38;;;;;;;26.15;15.27;;;;;;;4.38;100.00;93849.50;5030111;28;20095;-77
2021/10/02 01:57:07;;;;;;;23.67;13.27;;;;;;;4.39;100.00;93840.09;5029847;28;20049;-77
2021/10/02 01:59:35;;;;;;;25.95;15.10;;;;;;;4.51;100.00;93854.16;5029701;28;20451;-77
2021/10/02 02:02:04;;;;;;;23.95;14.82;;;;;;;4.37;100.00;93827.56;5029546;28;20501;-77
2021/10/02 02:04:33;;;;;;;24.00;13.38;;;;;;;4.44;100.00;93839.66;5029538;28;20045;-77
2021/10/02 02:07:01;;;;;;;22.58;13.98;;;;;;;4.46;100.00;93841.09;5029655;28;20054;-77
2021/10/02 02:09:37;;;;;;;26.50;15.40;;;;;;;4.48;100.00;93841.72;5029497;28;20048;-77
2021/10/02 02:12:12;;;;;;;25.88;14.40;;;;;;;4.37;100.00;93822.47;5029382;28;20056;-77
2021/10/02 02:14:42;;;;;;;27.33;14.88;;;;;;;4.38;100.00;93839.31;5029465;28;20045;-77
2021/10/02 02:17:11;;;;;;;23.08;13.77;;;;;;;4.43;100.00;93846.47;5029113;28;20056;-76
2021/10/02 02:19:39;;;;;;;23.20;13.30;;;;;;;4.48;100.00;93851.09;5029403;28;20057;-77
2021/10/02 02:22:06;;;;;;;22.77;13.63;;;;;;;4.43;100.00;93849.03;5029740;28;20060;-77
2021/10/02 02:24:34;;;;;;;23.45;14.38;;;;;;;4.31;100.00;93845.19;5029451;28;20052;-77
2021/10/02 02:27:04;;;;;;;26.17;14.20;;;;;;;4.30;100.00;93843.59;5029336;28;20045;-77
2021/10/02 02:29:32;;;;;;;25.42;14.10;;;;;;;4.38;100.00;93843.59;5029075;28;20049;-77
2021/10/02 02:32:01;;;;;;;24.52;12.98;;;;;;;4.40;100.00;93842.50;5029155;28;20068;-77
2021/10/02 02:34:29;;;;;;;33.42;14.27;;;;;;;4.46;100.00;93846.19;5029182;28;20132;-78
2021/10/02 02:36:56;;;;;;;32.08;13.50;;;;;;;4.38;100.00;93830.88;5029637;28;20045;-77
2021/10/02 02:39:23;;;;;;;24.55;13.43;;;;;;;4.40;100.00;93834.88;5029762;28;20046;-78
2021/10/02 02:41:50;;;;;;;27.95;13.88;;;;;;;4.30;100.00;93823.25;5029280;28;20045;-78
2021/10/02 02:44:18;;;;;;;30.73;14.43;;;;;;;4.29;100.00;93840.25;5029490;28;20076;-77
2021/10/02 02:46:50;;;;;;;29.17;16.98;;;;;;;4.23;100.00;93835.78;5029404;28;20053;-78
2021/10/02 02:49:25;;;;;;;33.70;15.82;;;;;;;4.07;100.00;93832.25;5033564;28;20045;-77
2021/10/02 02:51:59;;;;;;;29.98;16.20;;;;;;;4.04;100.00;93832.56;5033288;28;20049;-77
2021/10/02 02:54:33;;;;;;;33.05;15.98;;;;;;;4.16;100.00;93840.69;5033130;28;20052;-78
2021/10/02 02:57:15;;;;;;;28.95;14.65;;;;;;;4.13;100.00;93838.47;5033096;28;20042;-77
2021/10/02 02:59:47;;;;;;;37.17;16.15;;;;;;;4.13;100.00;93836.69;5033284;28;20103;-77
2021/10/02 03:02:19;;;;;;;34.75;15.70;;;;;;;4.04;100.00;93826.66;5033161;28;20416;-77
2021/10/02 03:04:49;;;;;;;34.92;20.63;;;;;;;4.04;100.00;93821.59;5033026;28;20053;-77
2021/10/02 03:07:19;;;;;;;33.53;18.80;;;;;;;4.14;100.00;93820.53;5033172;28;20060;-77
2021/10/02 03:09:48;;;;;;;34.67;18.95;;;;;;;4.12;100.00;93821.63;5033117;28;20397;-77
2021/10/02 03:12:15;;;;;;;34.53;18.88;;;;;;;3.96;100.00;93827.44;5033065;28;20056;-76
2021/10/02 03:14:44;;;;;;;34.10;18.70;;;;;;;3.93;100.00;93822.66;5032759;28;20049;-77
2021/10/02 03:17:14;;;;;;;37.58;18.92;;;;;;;3.98;100.00;93823.00;5032792;28;20049;-77
2021/10/02 03:19:43;;;;;;;35.40;17.35;;;;;;;3.94;100.00;93819.94;5033060;28;20056;-77
2021/10/02 03:22:12;;;;;;;36.83;17.15;;;;;;;3.97;100.00;93827.28;5032815;28;20057;-77
2021/10/02 03:24:40;;;;;;;32.55;15.90;;;;;;;3.97;100.00;93824.75;5032947;28;20131;-77
2021/10/02 03:27:09;;;;;;;28.42;15.40;;;;;;;3.99;100.00;93822.06;5032764;28;20049;-77
2021/10/02 03:29:37;;;;;;;33.03;16.08;;;;;;;4.02;100.00;93816.66;5032792;28;20050;-77
2021/10/02 03:32:06;;;;;;;27.92;14.85;;;;;;;3.94;100.00;93809.00;5032705;28;20049;-77
2021/10/02 03:34:34;;;;;;;27.48;13.70;;;;;;;3.82;100.00;93806.75;5032573;28;20493;-77
2021/10/02 03:37:01;;;;;;;25.35;13.60;;;;;;;3.74;100.00;93816.84;5032651;28;20045;-77
2021/10/02 03:39:30;;;;;;;29.45;15.32;;;;;;;3.65;100.00;93822.88;5032611;28;20053;-77
2021/10/02 03:42:12;;;;;;;25.42;13.40;;;;;;;3.66;100.00;93810.00;5032532;28;20463;-77
2021/10/02 03:44:44;;;;;;;34.08;16.00;;;;;;;3.79;100.00;93816.41;5032571;28;20041;-76
2021/10/02 03:47:12;;;;;;;30.27;15.27;;;;;;;3.75;100.00;93810.81;5049396;28;20048;-76
2021/10/02 03:49:39;;;;;;;26.67;14.00;;;;;;;3.84;100.00;93815.00;5052345;28;20053;-76
2021/10/02 03:52:08;;;;;;;29.25;14.75;;;;;;;3.72;100.00;93811.94;5049970;28;20514;-76
2021/10/02 03:54:36;;;;;;;27.40;13.90;;;;;;;3.74;100.00;93820.22;5052146;28;20098;-76
2021/10/02 03:57:04;;;;;;;26.85;15.18;;;;;;;3.78;100.00;93812.25;5043625;28;20207;-76
2021/10/02 03:59:49;;;;;;;26.10;14.23;;;;;;;3.79;100.00;93811.34;5045012;28;20042;-76
2021/10/02 04:02:16;;;;;;;22.33;13.13;;;;;;;3.85;100.00;93815.81;5038327;28;20056;-76
2021/10/02 04:04:43;;;;;;;23.23;13.20;;;;;;;3.80;100.00;93801.00;5050255;28;20496;-76
2021/10/02 04:07:09;;;;;;;21.05;12.60;;;;;;;3.89;100.00;93819.63;5034559;28;20053;-76
2021/10/02 04:09:38;;;;;;;21.65;12.00;;;;;;;3.82;100.00;93798.31;5034394;28;20565;-76
2021/10/02 04:12:05;;;;;;;23.20;13.35;;;;;;;3.93;100.00;93813.28;5048112;28;20052;-76
2021/10/02 04:14:32;;;;;;;22.73;12.93;;;;;;;3.91;99.91;93820.28;5051403;28;20072;-76
2021/10/02 04:16:59;;;;;;;22.95;12.57;;;;;;;3.91;99.28;93815.19;5043881;28;20036;-75
2021/10/02 04:19:26;;;;;;;25.52;12.73;;;;;;;3.80;100.00;93821.31;5042369;28;20045;-76
2021/10/02 04:21:53;;;;;;;26.45;12.80;;;;;;;3.68;100.00;93823.34;5040766;28;20393;-76
2021/10/02 04:24:22;;;;;;;24.73;12.25;;;;;;;3.59;100.00;93822.53;5042591;28;20098;-76
2021/10/02 04:26:51;;;;;;;25.50;12.45;;;;;;;3.51;100.00;93816.59;5045078;28;20044;-77
2021/10/02 04:29:18;;;;;;;24.42;13.48;;;;;;;3.46;100.00;93822.13;5045595;28;20045;-77
2021/10/02 04:31:44;;;;;;;22.80;12.85;;;;;;;3.40;100.00;93817.66;5039007;28;20099;-77
2021/10/02 04:34:11;;;;;;;19.65;11.73;;;;;;;3.43;100.00;93820.69;5031127;28;20056;-77
2021/10/02 04:36:38;;;;;;;19.23;11.80;;;;;;;3.36;100.00;93807.00;5031341;28;20045;-77
2021/10/02 04:39:05;;;;;;;19.88;10.32;;;;;;;3.43;100.00;93820.69;5031098;28;20489;-77
2021/10/02 04:41:31;;;;;;;24.10;12.65;;;;;;;3.45;100.00;93825.63;5032241;28;20095;-77
2021/10/02 04:44:00;;;;;;;20.02;11.45;;;;;;;3.42;100.00;93831.00;5036993;28;20042;-77
2021/10/02 04:46:27;;;;;;;22.33;11.13;;;;;;;3.43;100.00;93830.06;5031133;28;20056;-77
2021/10/02 04:48:53;;;;;;;21.20;12.23;;;;;;;3.38;100.00;93822.09;5031444;28;20045;-77
2021/10/02 04:51:20;;;;;;;30.02;14.30;;;;;;;3.39;100.00;93824.47;5030941;28;20053;-76
2021/10/02 04:53:47;;;;;;;22.38;12.10;;;;;;;3.40;100.00;93828.63;5030809;28;20049;-76
2021/10/02 04:56:16;;;;;;;21.30;12.57;;;;;;;3.40;100.00;93826.06;5031143;28;20053;-76
2021/10/02 04:58:44;;;;;;;24.05;13.38;;;;;;;3.36;100.00;93836.66;5033415;28;20049;-76
2021/10/02 05:01:12;;;;;;;22.77;12.60;;;;;;;2.69;100.00;93729.66;5050447;28;20053;-77
2021/10/02 05:03:40;;;;;;;23.77;12.70;;;;;;;3.39;100.00;93829.56;5050692;28;20099;-76
2021/10/02 05:06:08;;;;;;;22.98;13.18;;;;;;;3.41;100.00;93837.81;5050599;28;20052;-76
2021/10/02 05:08:36;;;;;;;25.08;12.95;;;;;;;3.32;100.00;93826.00;5050512;28;20049;-76
2021/10/02 05:11:04;;;;;;;26.52;13.40;;;;;;;3.51;100.00;93842.78;5050530;28;20550;-77
2021/10/02 05:13:32;;;;;;;24.63;13.85;;;;;;;3.61;100.00;93840.13;5050263;28;20496;-77
2021/10/02 05:15:59;;;;;;;24.48;14.30;;;;;;;3.54;100.00;93829.00;5050447;28;20049;-77
2021/10/02 05:18:27;;;;;;;22.92;12.95;;;;;;;3.69;100.00;93837.66;5049585;28;20531;-77
2021/10/02 05:20:54;;;;;;;27.00;14.15;;;;;;;3.71;100.00;93838.28;5032359;28;20053;-78
2021/10/02 05:23:21;;;;;;;33.33;17.42;;;;;;;3.80;100.00;93834.03;5029851;28;20049;-77
2021/10/02 05:25:48;;;;;;;30.30;15.35;;;;;;;3.93;100.00;93836.16;5029823;28;20090;-77
2021/10/02 05:28:15;;;;;;;26.80;15.35;;;;;;;3.88;100.00;93826.47;5042287;28;20546;-77
2021/10/02 05:30:42;;;;;;;28.75;17.00;;;;;;;4.07;100.00;93842.41;5047197;28;20111;-77
2021/10/02 05:33:08;;;;;;;31.80;17.42;;;;;;;4.10;100.00;93842.13;5044802;28;20057;-77
2021/10/02 05:35:37;;;;;;;32.53;19.38;;;;;;;4.19;100.00;93842.13;5029349;28;20045;-77
2021/10/02 05:38:04;;;;;;;25.95;17.88;;;;;;;4.25;100.00;93841.50;5029292;28;20244;-77
2021/10/02 05:40:31;;;;;;;31.02;19.33;;;;;;;4.26;100.00;93843.91;5029714;28;20095;-77
2021/10/02 05:42:58;;;;;;;30.15;19.13;;;;;;;4.38;100.00;93836.78;5029577;28;20049;-77
2021/10/02 05:45:25;;;;;;;26.33;16.83;;;;;;;4.55;100.00;93847.00;5029461;28;20045;-77
2021/10/02 05:47:52;;;;;;;31.25;16.80;;;;;;;4.63;100.00;93851.31;5029707;28;20054;-77
2021/10/02 05:50:19;;;;;;;25.92;15.25;;;;;;;4.71;100.00;93848.75;5029445;28;20045;-78
2021/10/02 05:52:47;;;;;;;29.92;18.30;;;;;;;4.73;100.00;93843.50;5029430;28;20488;-77
2021/10/02 05:55:13;;;;;;;25.75;17.15;;;;;;;4.85;100.00;93860.06;5029366;28;20060;-77
2021/10/02 05:57:40;;;;;;;29.33;17.42;;;;;;;5.04;100.00;93860.69;5029746;28;20269;-78
2021/10/02 06:00:09;;;;;;;21.88;14.90;;;;;;;5.03;100.00;93852.28;5029341;28;20091;-78
2021/10/02 06:02:36;;;;;;;25.88;15.00;;;;;;;5.14;100.00;93863.88;5029810;28;20393;-77
2021/10/02 06:05:03;;;;;;;25.17;15.25;;;;;;;5.15;100.00;93836.69;5029833;28;20104;-76
2021/10/02 06:07:30;;;;;;;23.13;13.48;;;;;;;5.39;100.00;93853.69;5029153;28;20053;-75
2021/10/02 06:09:59;;;;;;;21.08;14.15;;;;;;;5.55;100.00;93850.31;5029348;28;20049;-75
2021/10/02 06:12:25;;;;;;;23.33;12.75;;;;;;;5.68;100.00;93844.72;5029518;28;20052;-75
2021/10/02 06:14:52;;;;;;;28.77;13.07;;;;;;;5.78;100.00;93829.22;5029210;28;20052;-75
2021/10/02 06:17:19;;;;;;;26.90;13.68;;;;;;;6.10;100.00;93847.16;5029343;28;20057;-75
2021/10/02 06:19:46;;;;;;;25.42;14.35;;;;;;;6.25;100.00;93847.25;5037368;28;20044;-75
2021/10/02 06:22:13;;;;;;;21.30;13.70;;;;;;;6.38;99.68;93846.69;5048584;28;20052;-75
2021/10/02 06:24:40;;;;;;;25.75;14.98;;;;;;;6.58;98.78;93849.66;5049057;28;20048;-75
2021/10/02 06:27:08;;;;;;;29.30;16.02;;;;;;;6.73;99.69;93849.72;5049068;28;20048;-75
2021/10/02 06:29:35;;;;;;;31.15;16.52;;;;;;;6.82;97.08;93840.22;5049147;28;20504;-75
2021/10/02 06:32:02;;;;;;;46.03;21.58;;;;;;;7.10;97.91;93852.47;5049292;28;20048;-75
2021/10/02 06:34:29;;;;;;;33.75;17.77;;;;;;;7.18;98.54;93854.94;5033204;28;20455;-75
2021/10/02 06:36:55;;;;;;;34.15;18.13;;;;;;;7.11;96.87;93828.50;5029439;28;20049;-75
2021/10/02 06:39:22;;;;;;;33.90;18.38;;;;;;;7.54;97.70;93858.63;5029428;28;20111;-75
2021/10/02 06:41:49;;;;;;;46.88;22.73;;;;;;;7.72;96.64;93860.06;5028951;28;20421;-75
2021/10/02 06:44:17;;;;;;;38.75;20.00;;;;;;;7.93;95.94;93859.38;5028968;28;20620;-75
2021/10/02 06:46:44;;;;;;;28.30;17.08;;;;;;;8.13;94.71;93861.38;5029393;28;20053;-75
2021/10/02 06:49:11;;;;;;;34.20;17.83;;;;;;;8.31;93.82;93853.34;5028935;28;20590;-76
2021/10/02 06:51:38;;;;;;;32.80;17.70;;;;;;;8.42;93.76;93852.06;5029248;28;20096;-75
2021/10/02 06:54:05;;;;;;;33.85;17.33;;;;;;;8.53;93.53;93853.41;5028910;28;20053;-75
2021/10/02 06:56:32;;;;;;;39.63;21.63;;;;;;;8.54;94.30;93855.00;5030717;28;20037;-75
2021/10/02 06:58:59;;;;;;;37.70;19.80;;;;;;;8.68;92.42;93859.28;5046867;28;20045;-75
2021/10/02 07:01:27;;;;;;;39.22;21.52;;;;;;;8.89;91.87;93850.00;5048183;28;20048;-75
2021/10/02 07:03:53;;;;;;;41.58;20.42;;;;;;;9.08;92.35;93852.97;5048628;28;20049;-76
2021/10/02 07:06:20;;;;;;;48.78;22.90;;;;;;;9.20;90.48;93850.69;5049059;28;20053;-76
2021/10/02 07:08:47;;;;;;;46.55;20.90;;;;;;;9.39;89.21;93848.47;5048875;28;20075;-76
2021/10/02 07:11:14;;;;;;;47.40;21.98;;;;;;;9.56;90.13;93849.78;5048538;28;20091;-75
2021/10/02 07:13:40;;;;;;;46.15;21.73;;;;;;;9.62;88.31;93848.22;5048876;28;20049;-76
2021/10/02 07:16:07;;;;;;;38.50;19.58;;;;;;;9.81;88.11;93849.31;5048647;28;20049;-75
2021/10/02 07:18:35;;;;;;;44.20;19.13;;;;;;;10.02;88.43;93845.91;5048924;28;20064;-76
2021/10/02 07:21:02;;;;;;;39.05;18.90;;;;;;;10.27;88.45;93847.97;5029875;28;20056;-76
2021/10/02 07:23:32;;;;;;;42.22;18.92;;;;;;;10.42;87.07;93836.78;5028854;28;20784;-76
2021/10/02 07:25:59;;;;;;;34.05;16.70;;;;;;;10.72;87.43;93839.03;5028548;28;20057;-76
2021/10/02 07:28:26;;;;;;;37.55;16.05;;;;;;;10.86;85.27;93839.88;5029220;28;20045;-76
2021/10/02 07:30:53;;;;;;;38.65;16.88;;;;;;;11.10;86.08;93837.69;5028859;28;20457;-76
2021/10/02 07:33:20;;;;;;;36.13;16.77;;;;;;;11.38;84.98;93849.56;5029444;28;20057;-76
2021/10/02 07:35:48;;;;;;;32.55;13.85;;;;;;;11.59;83.30;93846.03;5038620;28;20053;-76
2021/10/02 07:38:15;;;;;;;23.55;12.55;;;;;;;11.74;83.20;93824.41;5052252;28;20040;-76
2021/10/02 07:40:42;;;;;;;27.95;12.70;;;;;;;12.06;82.19;93844.34;5052410;28;20354;-76
2021/10/02 07:43:13;;;;;;;25.95;13.15;;;;;;;12.23;79.45;93840.31;5052430;28;20049;-76
2021/10/02 07:45:42;;;;;;;23.20;10.55;;;;;;;12.23;77.17;93829.25;5052087;28;20484;-76
2021/10/02 07:48:09;;;;;;;22.60;11.50;;;;;;;12.41;78.01;93837.09;5051882;28;20048;-76
2021/10/02 07:50:38;;;;;;;22.88;11.05;;;;;;;12.56;78.39;93816.19;5052040;28;20048;-76
2021/10/02 07:53:06;;;;;;;19.17;8.13;;;;;;;12.45;72.51;93839.28;5051653;28;20045;-76
2021/10/02 07:55:34;;;;;;;19.75;8.77;;;;;;;11.87;73.71;93836.47;5051643;28;20084;-76
2021/10/02 07:58:01;;;;;;;18.42;7.35;;;;;;;11.91;74.34;93842.78;5051776;28;20068;-76
2021/10/02 08:00:28;;;;;;;21.65;10.70;;;;;;;12.20;73.93;93840.75;5049040;28;20052;-76
2021/10/02 08:02:55;;;;;;;20.58;10.32;;;;;;;12.10;73.43;93836.03;5034511;28;20057;-76
2021/10/02 08:05:23;;;;;;;20.73;8.60;;;;;;;12.32;76.09;93811.78;5032103;28;20049;-76
2021/10/02 08:07:51;;;;;;;18.88;8.85;;;;;;;12.77;75.31;93821.28;5031847;28;20056;-77
2021/10/02 08:10:25;;;;;;;20.27;8.77;;;;;;;13.10;73.73;93820.22;5031893;28;20048;-76
2021/10/02 08:12:52;;;;;;;11.77;6.18;;;;;;;13.04;68.34;93823.66;5031755;28;20049;-76
2021/10/02 08:15:18;;;;;;;7.60;4.65;;;;;;;12.50;68.20;93829.91;5031876;28;20394;-76
2021/10/02 08:17:46;;;;;;;8.27;4.85;;;;;;;12.38;70.53;93823.84;5031577;28;20504;-76
2021/10/02 08:20:17;;;;;;;8.25;5.13;;;;;;;12.64;69.34;93822.91;5043069;28;20053;-77
2021/10/02 08:22:45;;;;;;;14.15;5.35;;;;;;;12.50;70.24;93827.34;5051587;28;20115;-76
2021/10/02 08:25:14;;;;;;;9.52;5.63;;;;;;;12.89;70.26;93821.38;5051368;28;20048;-76
2021/10/02 08:27:44;;;;;;;8.38;4.60;;;;;;;12.94;69.82;93824.13;5051260;28;20507;-76
2021/10/02 08:30:13;;;;;;;9.43;3.80;;;;;;;13.07;68.24;93824.03;5051290;28;20094;-76
2021/10/02 08:32:40;;;;;;;9.63;5.05;;;;;;;13.22;67.17;93816.00;5050388;28;20053;-76
2021/10/02 08:35:09;;;;;;;7.82;4.63;;;;;;;13.28;68.37;93816.94;5031518;28;20045;-76
2021/10/02 08:37:36;;;;;;;15.27;7.60;;;;;;;13.29;69.52;93817.72;5031256;28;20053;-76
2021/10/02 08:40:05;;;;;;;18.98;6.57;;;;;;;13.06;69.31;93814.72;5031553;28;20103;-77
2021/10/02 08:42:32;;;;;;;9.55;4.78;;;;;;;13.51;71.21;93818.16;5039366;28;20049;-77
2021/10/02 08:45:01;;;;;;;10.07;4.90;;;;;;;13.61;66.52;93810.72;5050588;28;20045;-77
2021/10/02 08:47:29;;;;;;;11.75;5.28;;;;;;;13.55;64.98;93816.72;5050915;28;20045;-76
2021/10/02 08:49:58;;;;;;;10.93;4.70;;;;;;;13.92;64.70;93815.19;5050800;28;20056;-77
2021/10/02 08:52:25;;;;;;;11.23;5.07;;;;;;;14.06;65.42;93805.50;5050859;28;20048;-77
2021/10/02 08:54:54;;;;;;;9.48;4.40;;;;;;;14.39;66.68;93819.81;5050548;28;20546;-77
2021/10/02 08:57:23;;;;;;;9.40;4.60;;;;;;;13.89;65.18;93813.84;5051102;28;20419;-77
2021/10/02 08:59:53;;;;;;;7.88;5.03;;;;;;;13.70;66.33;93807.88;5050528;28;20102;-76
2021/10/02 09:02:22;;;;;;;8.13;4.40;;;;;;;13.81;67.00;93811.53;5050625;28;20045;-77
2021/10/02 09:04:50;;;;;;;8.60;4.55;;;;;;;14.05;68.06;93803.91;5050619;28;20044;-76
2021/10/02 09:07:20;;;;;;;10.32;4.30;;;;;;;13.89;62.23;93806.84;5050888;28;20110;-76
2021/10/02 09:09:47;;;;;;;8.02;4.75;;;;;;;14.42;64.46;93799.50;5050909;28;20056;-77
2021/10/02 09:12:17;;;;;;;6.35;3.45;;;;;;;14.50;59.49;93797.63;5050397;28;20045;-77
2021/10/02 09:14:44;;;;;;;6.88;3.63;;;;;;;14.59;59.85;93787.75;5050677;28;20114;-77
2021/10/02 09:17:11;;;;;;;6.10;4.00;;;;;;;14.37;59.75;93785.66;5050271;28;20049;-76
2021/10/02 09:19:39;;;;;;;6.22;3.17;;;;;;;14.86;64.34;93779.66;5046945;28;20053;-76
2021/10/02 09:22:08;;;;;;;6.72;3.55;;;;;;;15.17;63.26;93788.13;5048796;28;21035;-76
2021/10/02 09:24:36;;;;;;;6.03;3.97;;;;;;;15.33;60.41;93779.69;5048822;28;20044;-77
2021/10/02 09:27:04;;;;;;;5.95;3.42;;;;;;;15.52;59.29;93766.66;5050270;28;20764;-76
2021/10/02 09:29:37;;;;;;;4.40;3.28;;;;;;;15.86;60.84;93776.38;5050048;28;20045;-77
2021/10/02 09:32:06;;;;;;;4.90;2.70;;;;;;;16.15;58.51;93763.50;5050383;28;20136;-77
2021/10/02 09:34:32;;;;;;;5.13;2.90;;;;;;;16.24;56.29;93782.84;5050030;28;20060;-77
2021/10/02 09:37:01;;;;;;;4.65;2.53;;;;;;;15.58;56.58;93775.28;5049990;28;20488;-77
2021/10/02 09:39:41;;;;;;;5.63;2.78;;;;;;;16.09;56.68;93774.78;5050347;28;20122;-76
2021/10/02 09:42:21;;;;;;;5.63;2.70;;;;;;;15.75;56.97;93767.63;5049854;28;20098;-77
2021/10/02 09:44:47;;;;;;;4.13;2.42;;;;;;;15.77;56.35;93770.78;5050117;28;20053;-77
2021/10/02 09:47:15;;;;;;;6.03;2.60;;;;;;;15.93;58.64;93768.53;5050048;28;20072;-77
2021/10/02 09:49:43;;;;;;;4.40;3.10;;;;;;;15.69;57.93;93763.38;5050131;28;20055;-76
2021/10/02 09:52:27;;;;;;;6.40;2.88;;;;;;;15.89;56.66;93765.59;5048736;28;20451;-76
2021/10/02 09:54:54;;;;;;;4.63;2.60;;;;;;;15.76;58.83;93754.47;5048226;28;20385;-76
2021/10/02 09:57:21;;;;;;;5.35;3.00;;;;;;;16.22;56.04;93765.97;5042141;28;20058;-76
2021/10/02 09:59:48;;;;;;;3.85;2.53;;;;;;;16.08;57.75;93757.66;5029702;28;20068;-76
2021/10/02 10:02:17;;;;;;;4.45;2.45;;;;;;;16.31;56.95;93751.63;5029861;28;20049;-76
2021/10/02 10:04:51;;;;;;;4.70;2.58;;;;;;;16.32;55.95;93755.00;5029656;28;20046;-76
2021/10/02 10:07:19;;;;;;;6.90;3.20;;;;;;;16.72;57.13;93748.97;5029897;28;20049;-77
2021/10/02 10:10:00;;;;;;;4.63;3.30;;;;;;;17.12;58.05;93731.69;5029164;28;20045;-76
2021/10/02 10:12:28;;;;;;;7.97;3.00;;;;;;;17.38;56.73;93729.44;5045931;28;20077;-77
2021/10/02 10:14:55;;;;;;;7.60;2.95;;;;;;;17.29;52.12;93749.84;5047126;28;20587;-77
2021/10/02 10:17:22;;;;;;;4.65;2.75;;;;;;;17.21;54.02;93748.44;5048677;28;20162;-77
2021/10/02 10:20:02;;;;;;;5.80;3.13;;;;;;;16.85;54.64;93731.50;5042609;28;20041;-78
2021/10/02 10:22:31;;;;;;;6.22;3.00;;;;;;;16.88;55.31;93744.00;5027437;28;20052;-78
2021/10/02 10:25:00;;;;;;;8.20;3.60;;;;;;;16.75;55.07;93735.50;5038495;28;20044;-78
2021/10/02 10:27:34;;;;;;;6.70;2.95;;;;;;;16.52;55.85;93713.88;5048974;28;20045;-77
2021/10/02 10:30:11;;;;;;;8.32;4.38;;;;;;;16.78;54.81;93742.03;5047802;28;20562;-77
2021/10/02 10:32:39;;;;;;;6.80;3.10;;;;;;;17.07;55.28;93735.00;5048937;28;20060;-78
2021/10/02 10:35:07;;;;;;;5.18;3.30;;;;;;;17.37;54.24;93735.66;5049320;28;20115;-77
2021/10/02 10:37:36;;;;;;;4.95;3.22;;;;;;;17.69;56.10;93727.22;5048429;28;20048;-77
2021/10/02 10:40:04;;;;;;;5.47;3.30;;;;;;;17.43;55.24;93711.34;5049006;28;20057;-78
2021/10/02 10:42:31;;;;;;;4.95;3.08;;;;;;;17.23;53.53;93733.41;5049172;28;20044;-78
2021/10/02 10:44:59;;;;;;;6.07;2.97;;;;;;;17.30;54.19;93701.28;5043469;28;20511;-78
2021/10/02 10:47:26;;;;;;;5.47;3.10;;;;;;;17.23;54.13;93727.44;5037812;28;20414;-78
2021/10/02 10:49:53;;;;;;;5.38;3.08;;;;;;;16.87;55.38;93725.06;5037830;28;20045;-78
2021/10/02 10:52:22;;;;;;;3.97;3.00;;;;;;;16.30;56.53;93718.94;5037703;28;20464;-78
2021/10/02 10:54:53;;;;;;;9.63;4.90;;;;;;;16.65;55.33;93722.38;5035121;28;20053;-79
2021/10/02 10:57:42;;;;;;;7.00;3.42;;;;;;;17.11;56.88;93705.97;5048923;28;20052;-78
2021/10/02 11:00:16;;;;;;;4.93;2.83;;;;;;;17.67;56.57;93705.91;5044405;28;20059;-78
2021/10/02 11:02:49;;;;;;;6.20;2.72;;;;;;;17.98;52.86;93708.88;5048995;28;20057;-79
2021/10/02 11:05:48;;;;;;;6.82;2.50;;;;;;;18.10;54.44;93697.59;5049178;28;20056;-79
2021/10/02 11:08:19;;;;;;;4.18;2.88;;;;;;;17.67;51.38;93700.72;5049487;28;20063;-79
2021/10/02 11:10:50;;;;;;;6.05;2.70;;;;;;;17.71;53.08;93690.63;5052921;28;20077;-79
2021/10/02 11:13:19;;;;;;;4.30;3.05;;;;;;;17.22;52.85;93663.56;5052716;28;20049;-79
2021/10/02 11:15:47;;;;;;;6.65;2.83;;;;;;;17.70;52.71;93678.66;5052724;28;20315;-78
2021/10/02 11:18:45;;;;;;;4.75;2.75;;;;;;;18.14;51.34;93690.84;5052974;28;20053;-78
2021/10/02 11:21:13;;;;;;;6.32;3.40;;;;;;;18.09;50.77;93691.59;4971313;28;20047;-78
2021/10/02 11:24:05;;;;;;;6.38;3.30;;;;;;;17.27;52.84;93694.00;5019383;28;20550;-79
2021/10/02 11:26:42;;;;;;;6.03;3.17;;;;;;;17.01;54.00;93683.22;5032617;28;20053;-79
2021/10/02 11:29:28;;;;;;;4.40;3.00;;;;;;;16.42;54.06;93690.34;5032995;28;20611;-80
2021/10/02 11:32:26;;;;;;;5.28;2.90;;;;;;;16.40;54.74;93677.63;5032735;28;20095;-79
2021/10/02 11:35:29;;;;;;;6.40;3.20;;;;;;;16.71;54.96;93672.13;5051218;28;20416;-79
2021/10/02 11:37:59;;;;;;;5.22;2.80;;;;;;;16.62;52.99;93679.53;5051749;28;20045;-80
2021/10/02 11:40:46;;;;;;;4.78;3.00;;;;;;;16.45;53.55;93674.34;5052671;28;20048;-80
2021/10/02 11:43:33;;;;;;;4.85;2.50;;;;;;;16.62;52.74;93663.97;5052436;28;20141;-79
2021/10/02 11:46:06;;;;;;;6.20;3.35;;;;;;;17.03;53.28;93658.63;5052551;28;20060;-79
2021/10/02 11:48:42;;;;;;;5.35;2.90;;;;;;;17.38;53.86;93661.13;5052410;28;20060;-79
2021/10/02 11:51:23;;;;;;;7.13;3.40;;;;;;;17.81;51.12;93672.56;5052202;28;20066;-80
2021/10/02 11:53:52;;;;;;;4.57;2.75;;;;;;;17.43;51.90;93646.41;5051661;28;20508;-80
2021/10/02 11:56:22;;;;;;;5.07;2.50;;;;;;;17.48;52.04;93661.28;5045171;28;20144;-80
2021/10/02 11:58:52;;;;;;;6.45;2.70;;;;;;;16.81;52.03;93666.34;5029693;28;20060;-80
2021/10/02 12:01:21;;;;;;;5.38;2.33;;;;;;;17.13;51.39;93673.53;5030696;28;20049;-80
2021/10/02 12:03:49;;;;;;;9.93;3.55;;;;;;;17.11;51.81;93648.88;5032186;28;20409;-79
2021/10/02 12:06:20;;;;;;;5.72;2.50;;;;;;;17.40;52.72;93665.06;5032071;28;20049;-79
2021/10/02 12:08:49;;;;;;;3.72;2.03;;;;;;;17.60;50.62;93664.53;5031942;28;20049;-80
2021/10/02 12:11:16;;;;;;;6.03;3.28;;;;;;;17.88;51.99;93656.78;5031711;28;20050;-80
2021/10/02 12:13:45;;;;;;;6.10;2.70;;;;;;;17.84;51.27;93655.69;5031581;28;20363;-80
2021/10/02 12:16:15;;;;;;;5.45;2.40;;;;;;;17.92;51.31;93637.09;5031754;28;20508;-80
2021/10/02 12:18:55;;;;;;;5.70;2.55;;;;;;;17.70;50.78;93650.09;5031893;28;20054;-80
2021/10/02 12:21:34;;;;;;;6.78;2.72;;;;;;;17.92;52.08;93663.06;5031105;28;20137;-80
2021/10/02 12:24:04;;;;;;;4.35;2.70;;;;;;;18.27;51.40;93661.06;5031695;28;20049;-79
2021/10/02 12:26:33;;;;;;;6.07;2.85;;;;;;;18.21;49.89;93651.66;5031392;28;20041;-80